Time;durP1;ratioP1;P1;durP2;ratioP2;P2;SDS_P1;SDS_P2;PMS_P1;PMS_P2;Temp;Humidity;BMP_temperature;BMP_pressure;BME280_temperature;BME280_humidity;BME280_pressure;Samples;Min_cycle;Max_cycle;Signal;HPM_P1;HPM_P2
2022/01/13 00:02:04;;;;;;;88.63;32.00;;;;;;;5.71;100.00;103880.94;4917701;28;20521;-75
2022/01/13 00:04:30;;;;;;;104.15;34.10;;;;;;;5.67;100.00;103876.75;4926118;28;20034;-74
2022/01/13 00:06:55;;;;;;;108.68;35.00;;;;;;;5.63;100.00;103883.28;4893417;28;20178;-74
2022/01/13 00:09:21;;;;;;;88.13;33.35;;;;;;;5.62;100.00;103873.56;4925021;28;20035;-73
2022/01/13 00:11:48;;;;;;;102.43;32.80;;;;;;;5.60;100.00;103881.66;4917892;28;21088;-74
2022/01/13 00:19:49;;;;;;;85.47;29.38;;;;;;;5.53;100.00;103871.50;4909063;28;20129;-74
2022/01/13 00:24:47;;;;;;;113.65;35.15;;;;;;;5.54;100.00;103874.06;4926203;28;23770;-75
2022/01/13 00:27:14;;;;;;;114.80;33.63;;;;;;;5.61;100.00;103875.34;4923872;28;20039;-74
2022/01/13 00:29:42;;;;;;;136.50;35.67;;;;;;;5.52;100.00;103872.47;4925764;28;20050;-74
2022/01/13 00:32:09;;;;;;;115.43;34.22;;;;;;;5.49;100.00;103882.41;4912276;28;20051;-74
2022/01/13 00:34:34;;;;;;;121.15;34.00;;;;;;;5.53;100.00;103876.84;4925284;28;20050;-74
2022/01/13 00:37:00;;;;;;;108.93;34.20;;;;;;;5.50;100.00;103872.56;4910435;28;20051;-74
2022/01/13 00:39:26;;;;;;;127.63;34.70;;;;;;;5.52;100.00;103880.50;4940709;28;20046;-73
2022/01/13 00:41:51;;;;;;;98.65;31.30;;;;;;;5.44;100.00;103873.84;4922970;28;20046;-73
2022/01/13 00:44:20;;;;;;;132.40;35.92;;;;;;;5.46;100.00;103887.97;4911177;28;20065;-74
2022/01/13 00:46:55;;;;;;;138.32;36.08;;;;;;;5.41;100.00;103890.09;4925426;28;20035;-75
2022/01/13 00:49:21;;;;;;;138.18;37.35;;;;;;;5.41;100.00;103879.41;4893675;28;20065;-74
2022/01/13 00:51:46;;;;;;;105.72;35.58;;;;;;;5.41;100.00;103876.75;4922820;28;20031;-75
2022/01/13 00:54:12;;;;;;;139.20;39.95;;;;;;;5.40;100.00;103888.38;4917140;28;20051;-75
2022/01/13 00:56:38;;;;;;;118.65;38.20;;;;;;;5.38;100.00;103895.66;4914518;28;20054;-75
2022/01/13 00:59:07;;;;;;;123.75;37.70;;;;;;;5.38;100.00;103892.97;4923492;28;20058;-75
2022/01/13 01:01:47;;;;;;;135.70;37.58;;;;;;;5.33;100.00;103881.72;4909101;28;20066;-74
2022/01/13 01:04:13;;;;;;;130.98;40.08;;;;;;;5.31;100.00;103878.31;4924880;28;20031;-75
2022/01/13 01:06:40;;;;;;;133.05;39.22;;;;;;;5.31;100.00;103877.47;4919677;28;20043;-74
2022/01/13 01:09:12;;;;;;;144.93;42.03;;;;;;;5.26;100.00;103884.00;4915844;28;20049;-74
2022/01/13 01:11:38;;;;;;;143.63;40.60;;;;;;;5.30;100.00;103873.94;4925864;28;20035;-74
2022/01/13 01:14:06;;;;;;;116.93;39.17;;;;;;;5.23;100.00;103880.66;4911725;28;20166;-74
2022/01/13 01:16:33;;;;;;;111.90;36.28;;;;;;;5.23;100.00;103876.16;4925182;28;20180;-74
2022/01/13 01:19:05;;;;;;;110.53;37.20;;;;;;;5.18;100.00;103880.09;4910652;28;20047;-74
2022/01/13 01:21:46;;;;;;;109.93;38.10;;;;;;;5.17;100.00;103867.72;4924416;28;20046;-74
2022/01/13 01:29:24;;;;;;;117.68;36.25;;;;;;;4.99;100.00;103867.97;4924622;28;22641;-73
2022/01/13 01:31:53;;;;;;;123.32;36.78;;;;;;;5.04;100.00;103870.34;4909987;28;20049;-73
2022/01/13 01:36:48;;;;;;;122.60;37.40;;;;;;;4.98;100.00;103868.06;4917168;28;20054;-74
2022/01/13 01:39:13;;;;;;;116.68;34.80;;;;;;;5.02;100.00;103870.44;4915947;28;20055;-74
2022/01/13 01:41:41;;;;;;;97.35;34.63;;;;;;;5.02;100.00;103872.28;4924876;28;20039;-75
2022/01/13 01:44:09;;;;;;;108.32;36.58;;;;;;;4.99;100.00;103873.31;4907098;28;20078;-74
2022/01/13 01:46:39;;;;;;;112.38;36.25;;;;;;;5.03;100.00;103866.81;4922831;28;20089;-75
2022/01/13 01:49:16;;;;;;;120.35;37.13;;;;;;;5.01;100.00;103870.53;4907571;28;21154;-74
2022/01/13 01:51:42;;;;;;;114.22;35.70;;;;;;;5.07;100.00;103861.28;4924495;28;20049;-74
2022/01/13 01:54:07;;;;;;;116.25;34.90;;;;;;;5.11;100.00;103860.09;4924384;28;20419;-74
2022/01/13 01:56:33;;;;;;;121.28;35.55;;;;;;;5.18;100.00;103864.06;4910676;28;20115;-74
2022/01/13 01:59:02;;;;;;;118.40;34.45;;;;;;;5.17;100.00;103865.88;4924281;28;20106;-75
2022/01/13 02:01:29;;;;;;;111.97;33.33;;;;;;;5.20;100.00;103862.16;4909524;28;23586;-74
2022/01/13 02:03:54;;;;;;;109.70;33.47;;;;;;;5.22;100.00;103869.09;4924412;28;20034;-73
2022/01/13 02:06:20;;;;;;;125.28;37.05;;;;;;;5.21;100.00;103867.38;4921239;28;20525;-75
2022/01/13 02:08:45;;;;;;;106.65;34.28;;;;;;;5.22;100.00;103857.56;4913634;28;20057;-74
2022/01/13 02:11:10;;;;;;;118.20;36.65;;;;;;;5.24;100.00;103844.94;4924824;28;20069;-74
2022/01/13 02:13:39;;;;;;;119.88;36.25;;;;;;;5.21;100.00;103845.16;4911583;28;20054;-74
2022/01/13 02:16:16;;;;;;;111.25;34.50;;;;;;;5.20;100.00;103855.00;4925661;28;20053;-74
2022/01/13 02:18:42;;;;;;;112.35;35.33;;;;;;;5.14;100.00;103849.22;4901936;28;20050;-74
2022/01/13 02:21:07;;;;;;;109.57;36.45;;;;;;;5.12;100.00;103840.41;4914612;28;20137;-73
2022/01/13 02:23:36;;;;;;;100.97;36.42;;;;;;;5.08;100.00;103846.94;4924578;28;20607;-74
2022/01/13 02:26:04;;;;;;;111.47;35.25;;;;;;;4.98;100.00;103833.34;4909374;28;20058;-74
2022/01/13 02:28:29;;;;;;;126.65;33.90;;;;;;;5.01;100.00;103844.66;4924823;28;20027;-74
2022/01/13 02:30:55;;;;;;;108.47;33.28;;;;;;;4.98;100.00;103838.69;4918430;28;20113;-74
2022/01/13 02:33:20;;;;;;;105.60;34.10;;;;;;;4.93;100.00;103836.31;4915360;28;20898;-73
2022/01/13 02:35:46;;;;;;;106.80;34.28;;;;;;;5.01;100.00;103844.66;4925719;28;20043;-75
2022/01/13 02:38:12;;;;;;;103.35;34.35;;;;;;;4.98;100.00;103836.00;4920140;28;20050;-76
2022/01/13 02:40:38;;;;;;;99.85;35.58;;;;;;;4.96;100.00;103835.28;4933527;28;20039;-73
2022/01/13 02:43:05;;;;;;;115.97;35.90;;;;;;;4.95;100.00;103837.09;4903741;28;20039;-75
2022/01/13 02:45:37;;;;;;;115.25;34.05;;;;;;;4.91;100.00;103832.88;4918862;28;20142;-73
2022/01/13 02:50:28;;;;;;;101.10;35.67;;;;;;;5.02;100.00;103825.03;4911766;28;20054;-73
2022/01/13 02:52:53;;;;;;;115.72;37.38;;;;;;;5.05;100.00;103823.94;4926801;28;20050;-74
2022/01/13 02:55:19;;;;;;;107.55;35.10;;;;;;;5.06;100.00;103825.69;4915057;28;20081;-74
2022/01/13 02:57:44;;;;;;;110.93;37.60;;;;;;;4.97;100.00;103816.44;4927218;28;20142;-74
2022/01/13 03:00:10;;;;;;;112.80;35.13;;;;;;;5.03;100.00;103832.06;4928624;28;20043;-74
2022/01/13 03:02:36;;;;;;;111.00;35.13;;;;;;;5.04;100.00;103835.59;4908645;28;20093;-74
2022/01/13 03:05:01;;;;;;;112.88;35.40;;;;;;;5.10;100.00;103827.19;4925706;28;20042;-75
2022/01/13 03:07:30;;;;;;;105.57;35.55;;;;;;;5.13;100.00;103831.47;4914775;28;20058;-75
2022/01/13 03:09:56;;;;;;;119.93;37.72;;;;;;;5.12;100.00;103824.38;4926854;28;20103;-74
2022/01/13 03:12:23;;;;;;;112.82;35.92;;;;;;;5.05;100.00;103829.28;4925877;28;20039;-73
2022/01/13 03:14:48;;;;;;;108.32;34.33;;;;;;;5.09;100.00;103821.91;4911474;28;21220;-72
2022/01/13 03:17:13;;;;;;;108.68;35.67;;;;;;;5.06;100.00;103814.13;4926312;28;20053;-73
2022/01/13 03:19:39;;;;;;;115.68;35.95;;;;;;;5.12;100.00;103827.91;4910156;28;20051;-73
2022/01/13 03:22:04;;;;;;;112.53;34.47;;;;;;;5.11;100.00;103817.34;4924121;28;20038;-74
2022/01/13 03:24:31;;;;;;;111.07;36.42;;;;;;;5.05;100.00;103823.09;4926263;28;20038;-74
2022/01/13 03:26:57;;;;;;;117.13;36.03;;;;;;;5.09;100.00;103816.56;4909218;28;20062;-74
2022/01/13 03:29:24;;;;;;;119.78;34.25;;;;;;;5.10;100.00;103820.97;4926352;28;20035;-75
2022/01/13 03:31:50;;;;;;;108.78;33.80;;;;;;;5.11;100.00;103812.00;4910826;28;20047;-74
2022/01/13 03:34:16;;;;;;;113.50;35.03;;;;;;;5.17;100.00;103822.28;4926217;28;20046;-74
2022/01/13 03:36:43;;;;;;;112.43;36.03;;;;;;;5.17;100.00;103814.25;4925496;28;20077;-74
2022/01/13 03:39:09;;;;;;;114.70;35.13;;;;;;;5.11;100.00;103812.00;4912832;28;21709;-74
2022/01/13 03:41:36;;;;;;;114.95;34.97;;;;;;;5.13;100.00;103808.28;4927332;28;21579;-75
2022/01/13 03:44:07;;;;;;;133.02;35.42;;;;;;;5.15;100.00;103813.50;4909763;28;20226;-74
2022/01/13 03:46:37;;;;;;;116.00;34.70;;;;;;;5.09;100.00;103805.88;4927815;28;20125;-75
2022/01/13 03:49:06;;;;;;;129.32;36.53;;;;;;;5.07;100.00;103822.03;4924185;28;20027;-74
2022/01/13 03:51:55;;;;;;;113.40;34.85;;;;;;;5.11;100.00;103817.34;4915931;28;20153;-75
2022/01/13 03:54:33;;;;;;;106.75;34.10;;;;;;;5.09;100.00;103813.91;4927368;28;20054;-74
2022/01/13 03:57:17;;;;;;;115.15;37.22;;;;;;;5.03;100.00;103805.38;4910801;28;20068;-74
2022/01/13 04:00:17;;;;;;;98.65;32.20;;;;;;;5.04;100.00;103800.88;4941528;28;20043;-73
2022/01/13 04:02:42;;;;;;;118.22;35.25;;;;;;;4.99;100.00;103798.53;4911889;28;20142;-74
2022/01/13 04:05:08;;;;;;;98.85;34.10;;;;;;;5.03;100.00;103805.38;4925088;28;20672;-75
2022/01/13 04:07:34;;;;;;;102.90;33.60;;;;;;;5.01;100.00;103801.91;4918357;28;20499;-75
2022/01/13 04:09:59;;;;;;;129.18;34.70;;;;;;;4.93;100.00;103798.91;4915582;28;20047;-75
2022/01/13 04:12:27;;;;;;;109.90;35.10;;;;;;;4.90;100.00;103793.78;4924864;28;20895;-75
2022/01/13 04:14:56;;;;;;;101.05;31.30;;;;;;;4.91;100.00;103790.16;4910763;28;20061;-75
2022/01/13 04:17:23;;;;;;;127.80;33.85;;;;;;;4.89;100.00;103780.53;4925709;28;20535;-76
2022/01/13 04:19:49;;;;;;;129.32;31.40;;;;;;;4.82;100.00;103800.63;4916992;28;20050;-75
2022/01/13 04:22:15;;;;;;;122.05;32.65;;;;;;;4.87;100.00;103787.78;4921190;28;20517;-75
2022/01/13 04:24:46;;;;;;;154.77;35.00;;;;;;;4.88;100.00;103797.50;4909249;28;20033;-74
2022/01/13 04:27:22;;;;;;;140.52;36.28;;;;;;;4.86;100.00;103797.63;4910145;28;20065;-74
2022/01/13 04:29:49;;;;;;;113.00;33.03;;;;;;;4.92;100.00;103796.38;4923941;28;20630;-75
2022/01/13 04:32:15;;;;;;;138.48;34.67;;;;;;;4.90;100.00;103785.78;4908541;28;20066;-75
2022/01/13 04:34:40;;;;;;;130.23;34.03;;;;;;;4.94;100.00;103784.59;4925510;28;20119;-75
2022/01/13 04:37:06;;;;;;;125.50;32.50;;;;;;;4.93;100.00;103792.72;4925190;28;20035;-73
2022/01/13 04:39:32;;;;;;;108.57;33.13;;;;;;;4.99;100.00;103798.53;4913107;28;20063;-74
2022/01/13 04:41:58;;;;;;;127.97;34.72;;;;;;;4.96;100.00;103797.88;4927224;28;20069;-75
2022/01/13 04:44:24;;;;;;;124.57;33.67;;;;;;;4.98;100.00;103793.25;4910900;28;20054;-75
2022/01/13 04:46:53;;;;;;;121.25;36.13;;;;;;;5.02;100.00;103797.47;4925894;28;20034;-75
2022/01/13 04:49:20;;;;;;;148.35;38.03;;;;;;;4.97;100.00;103795.09;4920138;28;20026;-75
2022/01/13 04:51:47;;;;;;;122.13;36.38;;;;;;;5.02;100.00;103787.63;4914399;28;20465;-75
2022/01/13 04:54:13;;;;;;;120.85;37.97;;;;;;;4.98;100.00;103796.81;4908750;28;20059;-75
2022/01/13 04:57:05;;;;;;;126.25;37.30;;;;;;;4.96;100.00;103785.38;4911763;28;20435;-74
2022/01/13 04:59:31;;;;;;;129.10;35.53;;;;;;;4.96;100.00;103788.03;4922056;28;20768;-75
2022/01/13 05:01:56;;;;;;;133.75;35.83;;;;;;;4.98;100.00;103787.91;4905355;28;20157;-74
2022/01/13 05:04:22;;;;;;;133.15;36.30;;;;;;;5.00;100.00;103791.34;4923181;28;20038;-75
2022/01/13 05:06:50;;;;;;;130.75;37.53;;;;;;;4.97;100.00;103789.75;4924997;28;20411;-74
2022/01/13 05:09:16;;;;;;;130.32;34.17;;;;;;;4.95;100.00;103793.47;4909037;28;20059;-74
2022/01/13 05:11:41;;;;;;;132.75;36.33;;;;;;;4.94;100.00;103810.47;4923325;28;20034;-75
2022/01/13 05:14:07;;;;;;;133.57;35.50;;;;;;;4.93;100.00;103806.94;4908477;28;20043;-75
2022/01/13 05:16:49;;;;;;;126.05;35.47;;;;;;;4.90;100.00;103815.16;4923186;28;20035;-74
2022/01/13 05:19:18;;;;;;;143.60;35.15;;;;;;;4.87;100.00;103804.66;4920810;28;20049;-75
2022/01/13 05:22:06;;;;;;;146.05;37.67;;;;;;;4.87;100.00;103807.34;4913919;28;20061;-74
2022/01/13 05:24:29;;;;;;;147.93;36.83;;;;;;;4.89;100.00;103807.25;4923783;28;20101;-75
2022/01/13 05:26:55;;;;;;;130.40;37.72;;;;;;;4.87;100.00;103799.34;4906464;28;20169;-74
2022/01/13 05:29:20;;;;;;;115.75;35.30;;;;;;;4.85;100.00;103800.41;4925358;28;20038;-75
2022/01/13 05:31:47;;;;;;;104.35;33.55;;;;;;;4.85;100.00;103797.75;4917995;28;20086;-74
2022/01/13 05:34:13;;;;;;;123.13;34.30;;;;;;;4.80;100.00;103798.03;4914918;28;20723;-75
2022/01/13 05:36:38;;;;;;;132.82;36.35;;;;;;;4.81;100.00;103799.75;4909108;28;20058;-75
2022/01/13 05:39:04;;;;;;;142.13;36.78;;;;;;;4.84;100.00;103809.38;4907330;28;20502;-75
2022/01/13 05:41:31;;;;;;;112.07;36.92;;;;;;;4.82;100.00;103785.44;4923427;28;20054;-75
2022/01/13 05:43:57;;;;;;;140.85;35.30;;;;;;;4.86;100.00;103802.13;4917470;28;20066;-74
2022/01/13 05:46:22;;;;;;;129.15;35.58;;;;;;;4.88;100.00;103795.72;4913236;28;20051;-74
2022/01/13 05:48:48;;;;;;;133.13;34.90;;;;;;;4.90;100.00;103798.28;4923174;28;22974;-74
2022/01/13 05:51:13;;;;;;;144.48;35.75;;;;;;;4.88;100.00;103801.06;4911089;28;20054;-73
2022/01/13 05:53:38;;;;;;;87.88;32.42;;;;;;;4.91;100.00;103805.31;4923712;28;22814;-74
2022/01/13 05:56:04;;;;;;;156.95;37.03;;;;;;;4.86;100.00;103792.28;4914479;28;23921;-75
2022/01/13 05:58:29;;;;;;;119.38;32.88;;;;;;;4.89;100.00;103785.88;4914711;28;23966;-74
2022/01/13 06:00:55;;;;;;;126.75;33.53;;;;;;;4.90;100.00;103787.59;4925149;28;20861;-73
2022/01/13 06:03:20;;;;;;;125.18;33.63;;;;;;;4.95;100.00;103788.13;4908327;28;20088;-73
2022/01/13 06:05:46;;;;;;;123.35;34.45;;;;;;;4.95;100.00;103781.00;4922224;28;20129;-73
2022/01/13 06:08:11;;;;;;;149.15;37.72;;;;;;;4.96;100.00;103788.03;4919697;28;20217;-73
2022/01/13 06:10:42;;;;;;;111.97;33.60;;;;;;;4.97;100.00;103772.84;4925630;28;20161;-74
2022/01/13 06:13:07;;;;;;;130.85;34.92;;;;;;;5.00;100.00;103778.84;4930460;28;20030;-73
2022/01/13 06:15:35;;;;;;;154.85;36.17;;;;;;;5.02;100.00;103768.06;4912749;28;20053;-73
2022/01/13 06:18:00;;;;;;;198.15;39.00;;;;;;;5.00;100.00;103770.84;4942896;28;20039;-73
2022/01/13 06:20:25;;;;;;;127.57;34.05;;;;;;;5.03;100.00;103775.97;4910156;28;20046;-73
2022/01/13 06:22:52;;;;;;;171.82;37.03;;;;;;;5.04;100.00;103779.50;4943028;28;20042;-73
2022/01/13 06:25:18;;;;;;;154.10;36.70;;;;;;;5.03;100.00;103770.63;4926800;28;20031;-73
2022/01/13 06:27:44;;;;;;;169.68;37.45;;;;;;;5.06;100.00;103772.25;4910679;28;20051;-73
2022/01/13 06:30:13;;;;;;;167.38;40.55;;;;;;;5.06;100.00;103776.75;4926221;28;20511;-74
2022/01/13 06:32:38;;;;;;;148.70;35.63;;;;;;;5.06;100.00;103779.41;4909871;28;20145;-73
2022/01/13 06:35:04;;;;;;;137.60;36.17;;;;;;;5.07;100.00;103773.94;4929302;28;20039;-73
2022/01/13 06:37:30;;;;;;;185.05;38.17;;;;;;;5.11;100.00;103779.94;4928519;28;20118;-73
2022/01/13 06:39:55;;;;;;;164.82;38.88;;;;;;;5.16;100.00;103780.47;4912295;28;20082;-73
2022/01/13 06:42:20;;;;;;;135.48;36.17;;;;;;;5.13;100.00;103778.88;4928040;28;20065;-73
2022/01/13 06:44:46;;;;;;;168.80;37.70;;;;;;;5.12;100.00;103776.28;4908044;28;20089;-73
2022/01/13 06:47:12;;;;;;;177.90;40.50;;;;;;;5.18;100.00;103783.91;4926397;28;20927;-75
2022/01/13 06:49:41;;;;;;;171.50;37.83;;;;;;;5.19;100.00;103778.44;4928023;28;20031;-73
2022/01/13 06:52:07;;;;;;;201.02;41.58;;;;;;;5.20;100.00;103784.66;4913883;28;20108;-73
2022/01/13 06:54:32;;;;;;;153.70;39.00;;;;;;;5.22;100.00;103782.72;4910274;28;20065;-74
2022/01/13 06:56:58;;;;;;;157.85;40.85;;;;;;;5.24;100.00;103787.00;4912864;28;20061;-73
2022/01/13 06:59:23;;;;;;;168.52;40.22;;;;;;;5.27;100.00;103775.25;4922380;28;20071;-74
2022/01/13 07:01:49;;;;;;;159.13;37.83;;;;;;;5.32;100.00;103788.28;4926809;28;20046;-73
2022/01/13 07:04:15;;;;;;;185.05;41.72;;;;;;;5.31;100.00;103782.09;4910283;28;22814;-73
2022/01/13 07:06:42;;;;;;;176.07;40.13;;;;;;;5.31;100.00;103784.78;4941261;28;22430;-74
2022/01/13 07:09:13;;;;;;;186.48;41.35;;;;;;;5.33;100.00;103780.16;4908817;28;20146;-73
2022/01/13 07:11:39;;;;;;;196.90;40.58;;;;;;;5.31;100.00;103782.09;4926071;28;20023;-75
2022/01/13 07:14:06;;;;;;;182.77;40.85;;;;;;;5.34;100.00;103792.56;4923214;28;20031;-74
2022/01/13 07:16:32;;;;;;;208.75;44.88;;;;;;;5.35;100.00;103782.75;4916393;28;21093;-74
2022/01/13 07:18:58;;;;;;;217.10;46.40;;;;;;;5.37;100.00;103781.69;4925949;28;20034;-74
2022/01/13 07:21:26;;;;;;;207.35;42.78;;;;;;;5.37;100.00;103781.69;4910964;28;20066;-73
2022/01/13 07:23:52;;;;;;;187.35;42.30;;;;;;;5.40;100.00;103784.09;4926392;28;20049;-74
2022/01/13 07:26:17;;;;;;;183.73;42.60;;;;;;;5.43;100.00;103778.56;4902976;28;20035;-74
2022/01/13 07:28:43;;;;;;;217.93;44.60;;;;;;;5.46;100.00;103785.50;4918201;28;20057;-75
2022/01/13 07:31:08;;;;;;;161.80;40.95;;;;;;;5.47;100.00;103777.38;4928639;28;20027;-75
2022/01/13 07:33:34;;;;;;;234.52;47.47;;;;;;;5.52;100.00;103778.91;4913923;28;20054;-73
2022/01/13 07:35:59;;;;;;;151.52;41.72;;;;;;;5.55;100.00;103779.53;4926433;28;20497;-73
2022/01/13 07:38:25;;;;;;;198.38;43.78;;;;;;;5.54;100.00;103771.59;4921209;28;20039;-72
2022/01/13 07:40:50;;;;;;;186.30;45.22;;;;;;;5.50;100.00;103768.28;4915890;28;20043;-73
2022/01/13 07:43:21;;;;;;;191.48;41.28;;;;;;;5.52;100.00;103773.53;4927041;28;20065;-73
2022/01/13 07:45:48;;;;;;;190.70;42.38;;;;;;;5.52;100.00;103774.41;4910254;28;20055;-73
2022/01/13 07:48:14;;;;;;;193.32;44.03;;;;;;;5.50;100.00;103763.78;4926190;28;20118;-73
2022/01/13 07:50:39;;;;;;;181.20;43.45;;;;;;;5.52;100.00;103769.06;4920122;28;20058;-73
2022/01/13 07:53:05;;;;;;;184.55;41.13;;;;;;;5.54;100.00;103767.09;4929299;28;20054;-76
2022/01/13 07:55:30;;;;;;;162.70;42.35;;;;;;;5.54;100.00;103772.44;4925957;28;20045;-72
2022/01/13 07:57:56;;;;;;;175.43;41.90;;;;;;;5.53;100.00;103776.09;4908384;28;20113;-73
2022/01/13 08:00:21;;;;;;;172.40;40.17;;;;;;;5.61;100.00;103778.22;4924381;28;20035;-72
2022/01/13 08:02:47;;;;;;;162.80;39.63;;;;;;;5.59;100.00;103775.69;4918384;28;20763;-73
2022/01/13 08:05:12;;;;;;;170.10;42.67;;;;;;;5.62;100.00;103786.16;4916070;28;20129;-72
2022/01/13 08:07:38;;;;;;;172.57;43.97;;;;;;;5.59;100.00;103788.19;4925911;28;20037;-73
2022/01/13 08:10:04;;;;;;;172.68;42.63;;;;;;;5.57;100.00;103788.28;4908624;28;20519;-72
2022/01/13 08:12:29;;;;;;;174.85;42.03;;;;;;;5.57;100.00;103787.44;4925245;28;20043;-72
2022/01/13 08:14:55;;;;;;;165.68;41.00;;;;;;;5.54;100.00;103793.00;4920115;28;20507;-73
2022/01/13 08:20:06;;;;;;;159.45;40.67;;;;;;;5.53;100.00;103785.94;4925859;28;20041;-73
2022/01/13 08:22:32;;;;;;;163.20;38.97;;;;;;;5.56;100.00;103791.06;4909793;28;20050;-73
2022/01/13 08:24:58;;;;;;;147.73;38.13;;;;;;;5.60;100.00;103792.56;4925127;28;20479;-73
2022/01/13 08:27:23;;;;;;;158.35;40.80;;;;;;;5.59;100.00;103788.19;4910892;28;20483;-73
2022/01/13 08:29:48;;;;;;;164.00;39.72;;;;;;;5.59;100.00;103791.72;4926757;28;20045;-72
2022/01/13 08:32:14;;;;;;;150.95;38.60;;;;;;;5.58;100.00;103794.47;4923699;28;20583;-72
2022/01/13 08:34:39;;;;;;;143.32;38.47;;;;;;;5.58;100.00;103799.84;4908952;28;20050;-72
2022/01/13 08:37:05;;;;;;;142.90;39.42;;;;;;;5.57;100.00;103792.78;4924544;28;20070;-72
2022/01/13 08:39:32;;;;;;;154.63;40.17;;;;;;;5.58;100.00;103799.84;4925393;28;20083;-72
2022/01/13 08:41:57;;;;;;;158.70;40.40;;;;;;;5.59;100.00;103806.91;4924839;28;20062;-73
2022/01/13 08:44:23;;;;;;;151.07;39.10;;;;;;;5.60;100.00;103797.91;4926750;28;20626;-72
2022/01/13 08:46:48;;;;;;;167.30;41.95;;;;;;;5.55;100.00;103800.06;4911151;28;20573;-72
2022/01/13 08:49:14;;;;;;;145.57;39.13;;;;;;;5.59;100.00;103812.25;4925547;28;20364;-72
2022/01/13 08:51:40;;;;;;;154.23;38.22;;;;;;;5.60;100.00;103797.91;4910640;28;20066;-73
2022/01/13 08:54:05;;;;;;;128.02;37.38;;;;;;;5.58;100.00;103802.50;4923512;28;20055;-73
2022/01/13 08:56:31;;;;;;;133.82;38.70;;;;;;;5.61;100.00;103791.59;4891350;28;20057;-73
2022/01/13 08:58:56;;;;;;;139.20;38.60;;;;;;;5.60;100.00;103797.91;4922721;28;20058;-72
2022/01/13 09:01:22;;;;;;;140.23;39.92;;;;;;;5.60;100.00;103808.63;4926067;28;22531;-72
2022/01/13 09:03:47;;;;;;;148.48;39.72;;;;;;;5.58;100.00;103811.41;4928078;28;20097;-73
2022/01/13 09:06:13;;;;;;;162.38;41.85;;;;;;;5.59;100.00;103817.59;4926774;28;20681;-72
2022/01/13 09:08:39;;;;;;;163.88;41.80;;;;;;;5.62;100.00;103823.59;4922410;28;20639;-73
2022/01/13 09:11:05;;;;;;;153.50;42.15;;;;;;;5.69;100.00;103818.69;4912161;28;20070;-72
2022/01/13 09:13:36;;;;;;;140.35;40.08;;;;;;;5.66;100.00;103814.38;4909550;28;20035;-73
2022/01/13 09:16:02;;;;;;;152.52;41.92;;;;;;;5.70;100.00;103817.72;4910769;28;20046;-72
2022/01/13 09:18:47;;;;;;;148.93;40.25;;;;;;;5.66;100.00;103808.19;4925688;28;20035;-72
2022/01/13 09:21:14;;;;;;;141.98;39.42;;;;;;;5.70;100.00;103810.53;4920260;28;20050;-72
2022/01/13 09:23:40;;;;;;;126.57;40.65;;;;;;;5.72;100.00;103818.44;4916733;28;20051;-71
2022/01/13 09:26:05;;;;;;;161.55;43.50;;;;;;;5.74;100.00;103814.69;4924858;28;20043;-72
2022/01/13 09:28:31;;;;;;;168.20;41.75;;;;;;;5.71;100.00;103811.38;4906260;28;20115;-74
2022/01/13 09:30:57;;;;;;;156.77;41.83;;;;;;;5.79;100.00;103813.50;4925443;28;20035;-73
2022/01/13 09:33:22;;;;;;;143.75;42.67;;;;;;;5.83;100.00;103810.53;4917103;28;20101;-73
2022/01/13 09:35:48;;;;;;;152.35;42.75;;;;;;;5.87;100.00;103809.34;4916921;28;20050;-73
2022/01/13 09:38:13;;;;;;;152.43;44.63;;;;;;;5.92;100.00;103807.22;4926199;28;20114;-73
2022/01/13 09:40:42;;;;;;;144.32;41.10;;;;;;;5.92;100.00;103804.53;4909189;28;22717;-74
2022/01/13 09:43:08;;;;;;;162.15;42.92;;;;;;;5.94;100.00;103807.97;4934407;28;20085;-73
2022/01/13 09:45:35;;;;;;;143.77;40.95;;;;;;;5.95;100.00;103804.31;4907525;28;20086;-73
2022/01/13 09:48:00;;;;;;;154.13;43.33;;;;;;;5.96;100.00;103805.16;4915200;28;20050;-72
2022/01/13 09:50:26;;;;;;;141.43;40.40;;;;;;;5.94;100.00;103807.97;4927987;28;20090;-72
2022/01/13 09:52:51;;;;;;;151.48;41.47;;;;;;;5.91;100.00;103802.81;4910345;28;20408;-73
2022/01/13 09:55:18;;;;;;;146.35;40.60;;;;;;;5.91;100.00;103801.94;4924215;28;20117;-73
2022/01/13 09:57:49;;;;;;;138.57;41.03;;;;;;;6.01;100.00;103807.53;4918537;28;25223;-73
2022/01/13 10:00:19;;;;;;;158.15;44.00;;;;;;;6.02;100.00;103809.25;4925808;28;20062;-73
2022/01/13 10:02:45;;;;;;;146.05;43.40;;;;;;;5.97;100.00;103807.75;4926421;28;20466;-73
2022/01/13 10:05:11;;;;;;;147.65;41.78;;;;;;;6.10;100.00;103814.88;4910618;28;20129;-72
2022/01/13 10:07:41;;;;;;;134.63;43.35;;;;;;;6.00;100.00;103813.84;4925113;28;20498;-72
2022/01/13 10:10:12;;;;;;;139.23;43.30;;;;;;;6.04;100.00;103808.19;4908968;28;20066;-72
2022/01/13 10:12:39;;;;;;;130.35;41.42;;;;;;;6.17;100.00;103805.44;4924141;28;20035;-72
2022/01/13 10:18:01;;;;;;;131.70;42.20;;;;;;;6.21;100.00;103814.97;4930555;28;20050;-72
2022/01/13 10:20:26;;;;;;;142.35;42.35;;;;;;;6.24;100.00;103806.72;4923105;28;20513;-71
2022/01/13 10:22:53;;;;;;;113.65;39.65;;;;;;;6.27;100.00;103803.81;4908672;28;20046;-73
2022/01/13 10:25:34;;;;;;;118.93;41.13;;;;;;;6.28;100.00;103794.81;4922036;28;20158;-73
2022/01/13 10:28:15;;;;;;;115.93;40.72;;;;;;;6.34;100.00;103810.44;4905675;28;20054;-72
2022/01/13 10:30:42;;;;;;;111.65;39.10;;;;;;;6.30;100.00;103792.88;4925332;28;20042;-73
2022/01/13 10:33:22;;;;;;;108.55;37.55;;;;;;;6.30;100.00;103808.94;4920832;28;20145;-72
2022/01/13 10:35:49;;;;;;;119.40;40.53;;;;;;;6.34;100.00;103794.38;4914578;28;20388;-71
2022/01/13 10:38:16;;;;;;;121.25;41.13;;;;;;;6.34;100.00;103794.38;4923457;28;20064;-73
2022/01/13 10:40:47;;;;;;;105.65;40.22;;;;;;;6.34;100.00;103796.19;4907607;28;20047;-72
2022/01/13 10:43:14;;;;;;;109.15;40.92;;;;;;;6.37;100.00;103794.13;4923883;28;20121;-72
2022/01/13 10:45:52;;;;;;;115.82;40.05;;;;;;;6.45;100.00;103791.75;4917499;28;20335;-73
2022/01/13 10:48:22;;;;;;;107.68;39.95;;;;;;;6.43;100.00;103793.69;4912405;28;20726;-71
2022/01/13 10:51:04;;;;;;;102.18;39.90;;;;;;;6.53;100.00;103795.69;4922903;28;20031;-73
2022/01/13 10:53:30;;;;;;;103.93;39.25;;;;;;;6.45;100.00;103789.06;4909223;28;20058;-72
2022/01/13 10:56:01;;;;;;;104.30;39.45;;;;;;;6.44;100.00;103779.34;4925013;28;20046;-73
2022/01/13 10:58:30;;;;;;;114.30;38.60;;;;;;;6.45;100.00;103774.81;4912693;28;20147;-72
2022/01/13 11:00:56;;;;;;;104.25;38.33;;;;;;;6.44;100.00;103779.34;4926338;28;20109;-72
2022/01/13 11:03:24;;;;;;;106.18;38.97;;;;;;;6.48;100.00;103784.47;4904090;28;20066;-72
2022/01/13 11:06:03;;;;;;;108.28;39.85;;;;;;;6.40;100.00;103767.16;4898976;28;20974;-73
2022/01/13 11:08:31;;;;;;;108.88;38.55;;;;;;;6.44;100.00;103778.47;4910630;28;20041;-73
2022/01/13 11:11:02;;;;;;;112.93;39.25;;;;;;;6.46;100.00;103781.91;4911539;28;20134;-71
2022/01/13 11:13:30;;;;;;;98.45;38.83;;;;;;;6.45;100.00;103781.03;4927580;28;20037;-73
2022/01/13 11:15:56;;;;;;;103.45;40.00;;;;;;;6.36;100.00;103781.72;4919254;28;20565;-73
2022/01/13 11:18:28;;;;;;;94.47;37.97;;;;;;;6.40;100.00;103777.84;4921520;28;20535;-73
2022/01/13 11:20:54;;;;;;;107.28;41.05;;;;;;;6.41;100.00;103779.56;4927641;28;20027;-72
2022/01/13 11:23:20;;;;;;;113.32;41.47;;;;;;;6.43;100.00;103777.63;4905648;28;20073;-72
2022/01/13 11:25:50;;;;;;;100.05;40.17;;;;;;;6.47;100.00;103767.53;4926107;28;20034;-74
2022/01/13 11:28:16;;;;;;;95.82;39.47;;;;;;;6.52;100.00;103769.88;4923965;28;20459;-73